sensor_id;sensor_type;location;lat;lon;timestamp;pressure;altitude;pressure_sealevel;temperature;humidity
8653;BME280;4364;52.426;9.424;2023-02-28T00:01:21;102632.19;;;-1.20;86.96
8653;BME280;4364;52.426;9.424;2023-02-28T00:03:48;102633.34;;;-1.23;87.06
8653;BME280;4364;52.426;9.424;2023-02-28T00:06:14;102633.03;;;-1.20;87.06
8653;BME280;4364;52.426;9.424;2023-02-28T00:08:41;102628.22;;;-1.16;87.14
8653;BME280;4364;52.426;9.424;2023-02-28T00:11:11;102629.06;;;-1.16;86.51
8653;BME280;4364;52.426;9.424;2023-02-28T00:13:43;102626.44;;;-1.25;86.45
8653;BME280;4364;52.426;9.424;2023-02-28T00:16:15;102629.44;;;-1.28;86.92
8653;BME280;4364;52.426;9.424;2023-02-28T00:18:42;102626.22;;;-1.32;87.11
8653;BME280;4364;52.426;9.424;2023-02-28T00:21:09;102625.97;;;-1.39;86.95
8653;BME280;4364;52.426;9.424;2023-02-28T00:23:35;102626.84;;;-1.38;87.43
8653;BME280;4364;52.426;9.424;2023-02-28T00:26:02;102624.47;;;-1.41;87.40
8653;BME280;4364;52.426;9.424;2023-02-28T00:28:29;102634.75;;;-1.46;87.26
8653;BME280;4364;52.426;9.424;2023-02-28T00:30:58;102631.25;;;-1.47;87.83
8653;BME280;4364;52.426;9.424;2023-02-28T00:33:28;102636.59;;;-1.47;87.50
8653;BME280;4364;52.426;9.424;2023-02-28T00:36:05;102626.59;;;-1.45;87.78
8653;BME280;4364;52.426;9.424;2023-02-28T00:38:35;102621.41;;;-1.46;87.63
8653;BME280;4364;52.426;9.424;2023-02-28T00:41:01;102623.53;;;-1.50;87.39
8653;BME280;4364;52.426;9.424;2023-02-28T00:43:33;102626.78;;;-1.56;87.69
8653;BME280;4364;52.426;9.424;2023-02-28T00:46:00;102625.44;;;-1.60;87.49
8653;BME280;4364;52.426;9.424;2023-02-28T00:48:27;102628.25;;;-1.62;87.88
8653;BME280;4364;52.426;9.424;2023-02-28T00:50:53;102626.44;;;-1.71;88.51
8653;BME280;4364;52.426;9.424;2023-02-28T00:53:20;102634.06;;;-1.76;88.09
8653;BME280;4364;52.426;9.424;2023-02-28T00:55:46;102638.03;;;-1.80;88.28
8653;BME280;4364;52.426;9.424;2023-02-28T00:58:13;102633.66;;;-1.81;88.59
8653;BME280;4364;52.426;9.424;2023-02-28T01:00:39;102632.97;;;-1.83;88.42
8653;BME280;4364;52.426;9.424;2023-02-28T01:03:06;102637.78;;;-1.87;88.46
8653;BME280;4364;52.426;9.424;2023-02-28T01:05:32;102631.88;;;-1.91;88.46
8653;BME280;4364;52.426;9.424;2023-02-28T01:07:59;102637.81;;;-1.97;88.68
8653;BME280;4364;52.426;9.424;2023-02-28T01:10:27;102632.22;;;-2.03;89.21
8653;BME280;4364;52.426;9.424;2023-02-28T01:12:57;102630.94;;;-1.99;88.78
8653;BME280;4364;52.426;9.424;2023-02-28T01:15:24;102627.56;;;-2.01;89.15
8653;BME280;4364;52.426;9.424;2023-02-28T01:17:51;102633.88;;;-2.02;89.12
8653;BME280;4364;52.426;9.424;2023-02-28T01:20:17;102631.75;;;-1.99;88.97
8653;BME280;4364;52.426;9.424;2023-02-28T01:22:44;102631.22;;;-2.02;88.71
8653;BME280;4364;52.426;9.424;2023-02-28T01:25:10;102634.16;;;-2.06;88.63
8653;BME280;4364;52.426;9.424;2023-02-28T01:27:36;102637.28;;;-2.10;88.66
8653;BME280;4364;52.426;9.424;2023-02-28T01:30:07;102635.75;;;-2.13;89.03
8653;BME280;4364;52.426;9.424;2023-02-28T01:32:35;102633.81;;;-2.20;89.04
8653;BME280;4364;52.426;9.424;2023-02-28T01:35:02;102632.69;;;-2.18;89.38
8653;BME280;4364;52.426;9.424;2023-02-28T01:37:28;102630.56;;;-2.14;89.53
8653;BME280;4364;52.426;9.424;2023-02-28T01:39:56;102631.56;;;-2.15;89.38
8653;BME280;4364;52.426;9.424;2023-02-28T01:42:23;102633.75;;;-2.11;89.55
8653;BME280;4364;52.426;9.424;2023-02-28T01:45:28;102633.19;;;-2.05;89.91
8653;BME280;4364;52.426;9.424;2023-02-28T01:47:59;102625.16;;;-1.95;89.36
8653;BME280;4364;52.426;9.424;2023-02-28T01:50:28;102627.28;;;-1.98;89.97
8653;BME280;4364;52.426;9.424;2023-02-28T01:53:00;102626.13;;;-1.96;90.19
8653;BME280;4364;52.426;9.424;2023-02-28T01:55:30;102624.75;;;-2.00;90.58
8653;BME280;4364;52.426;9.424;2023-02-28T01:58:00;102627.44;;;-2.00;90.39
8653;BME280;4364;52.426;9.424;2023-02-28T02:00:29;102626.75;;;-2.02;90.08
8653;BME280;4364;52.426;9.424;2023-02-28T02:03:01;102623.81;;;-2.09;90.37
8653;BME280;4364;52.426;9.424;2023-02-28T02:05:31;102630.28;;;-2.11;90.11
8653;BME280;4364;52.426;9.424;2023-02-28T02:08:03;102629.31;;;-2.20;90.58
8653;BME280;4364;52.426;9.424;2023-02-28T02:10:36;102633.25;;;-2.24;90.46
8653;BME280;4364;52.426;9.424;2023-02-28T02:27:20;102619.66;;;-2.31;90.40
8653;BME280;4364;52.426;9.424;2023-02-28T02:35:54;102621.38;;;-2.49;90.10
8653;BME280;4364;52.426;9.424;2023-02-28T02:38:36;102623.22;;;-2.59;90.34
8653;BME280;4364;52.426;9.424;2023-02-28T02:41:13;102614.00;;;-2.65;91.02
8653;BME280;4364;52.426;9.424;2023-02-28T02:43:48;102621.72;;;-2.72;90.89
8653;BME280;4364;52.426;9.424;2023-02-28T02:46:23;102611.06;;;-2.82;91.02
8653;BME280;4364;52.426;9.424;2023-02-28T02:48:51;102620.75;;;-2.81;91.47
8653;BME280;4364;52.426;9.424;2023-02-28T02:51:23;102621.56;;;-2.80;91.13
8653;BME280;4364;52.426;9.424;2023-02-28T02:53:56;102622.56;;;-2.81;90.81
8653;BME280;4364;52.426;9.424;2023-02-28T02:56:30;102618.34;;;-2.84;91.28
8653;BME280;4364;52.426;9.424;2023-02-28T02:59:02;102619.47;;;-2.86;91.11
8653;BME280;4364;52.426;9.424;2023-02-28T03:01:31;102620.03;;;-2.92;90.89
8653;BME280;4364;52.426;9.424;2023-02-28T03:04:05;102626.06;;;-2.90;90.96
8653;BME280;4364;52.426;9.424;2023-02-28T03:06:34;102625.22;;;-2.91;91.16
8653;BME280;4364;52.426;9.424;2023-02-28T03:09:02;102621.16;;;-2.95;90.56
8653;BME280;4364;52.426;9.424;2023-02-28T03:11:29;102614.00;;;-2.94;91.16
8653;BME280;4364;52.426;9.424;2023-02-28T03:14:03;102623.56;;;-2.92;90.63
8653;BME280;4364;52.426;9.424;2023-02-28T03:16:59;102616.25;;;-3.00;90.47
8653;BME280;4364;52.426;9.424;2023-02-28T03:22:27;102616.25;;;-3.09;90.79
8653;BME280;4364;52.426;9.424;2023-02-28T03:25:34;102611.91;;;-3.10;91.19
8653;BME280;4364;52.426;9.424;2023-02-28T03:30:52;102612.75;;;-3.20;91.23
8653;BME280;4364;52.426;9.424;2023-02-28T03:33:28;102601.25;;;-3.20;90.94
8653;BME280;4364;52.426;9.424;2023-02-28T03:36:07;102603.22;;;-3.22;91.20
8653;BME280;4364;52.426;9.424;2023-02-28T03:38:38;102612.19;;;-3.23;91.14
8653;BME280;4364;52.426;9.424;2023-02-28T03:41:14;102607.41;;;-3.29;90.97
8653;BME280;4364;52.426;9.424;2023-02-28T03:43:46;102610.50;;;-3.24;91.39
8653;BME280;4364;52.426;9.424;2023-02-28T03:46:19;102611.06;;;-3.11;91.54
8653;BME280;4364;52.426;9.424;2023-02-28T03:48:56;102605.31;;;-3.06;91.16
8653;BME280;4364;52.426;9.424;2023-02-28T03:51:27;102607.97;;;-3.06;90.93
8653;BME280;4364;52.426;9.424;2023-02-28T03:54:07;102611.50;;;-3.15;90.84
8653;BME280;4364;52.426;9.424;2023-02-28T03:56:59;102611.22;;;-3.22;91.17
8653;BME280;4364;52.426;9.424;2023-02-28T03:59:34;102610.78;;;-3.27;90.89
8653;BME280;4364;52.426;9.424;2023-02-28T04:02:03;102617.19;;;-3.40;91.13
8653;BME280;4364;52.426;9.424;2023-02-28T04:04:29;102615.97;;;-3.36;91.86
8653;BME280;4364;52.426;9.424;2023-02-28T04:07:08;102617.06;;;-3.28;92.04
8653;BME280;4364;52.426;9.424;2023-02-28T04:09:37;102621.84;;;-3.32;91.87
8653;BME280;4364;52.426;9.424;2023-02-28T04:12:04;102620.28;;;-3.35;91.41
8653;BME280;4364;52.426;9.424;2023-02-28T04:14:31;102620.00;;;-3.41;91.42
8653;BME280;4364;52.426;9.424;2023-02-28T04:16:57;102614.78;;;-3.53;91.65
8653;BME280;4364;52.426;9.424;2023-02-28T04:19:24;102616.75;;;-3.55;92.29
8653;BME280;4364;52.426;9.424;2023-02-28T04:21:52;102617.16;;;-3.59;92.95
8653;BME280;4364;52.426;9.424;2023-02-28T04:24:24;102623.72;;;-3.63;93.09
8653;BME280;4364;52.426;9.424;2023-02-28T04:26:53;102616.44;;;-3.61;92.93
8653;BME280;4364;52.426;9.424;2023-02-28T04:29:23;102617.56;;;-3.64;92.59
8653;BME280;4364;52.426;9.424;2023-02-28T04:31:50;102614.22;;;-3.56;92.66
8653;BME280;4364;52.426;9.424;2023-02-28T04:34:16;102614.78;;;-3.53;92.21
8653;BME280;4364;52.426;9.424;2023-02-28T04:36:45;102617.72;;;-3.65;92.33
8653;BME280;4364;52.426;9.424;2023-02-28T04:39:12;102608.56;;;-3.73;92.40
8653;BME280;4364;52.426;9.424;2023-02-28T04:41:38;102617.53;;;-3.74;92.46
8653;BME280;4364;52.426;9.424;2023-02-28T04:44:05;102618.38;;;-3.73;92.89
8653;BME280;4364;52.426;9.424;2023-02-28T04:46:31;102620.78;;;-3.70;92.94
8653;BME280;4364;52.426;9.424;2023-02-28T04:48:58;102624.00;;;-3.66;92.59
8653;BME280;4364;52.426;9.424;2023-02-28T04:51:25;102623.69;;;-3.73;92.92
8653;BME280;4364;52.426;9.424;2023-02-28T04:53:52;102619.94;;;-3.70;93.20
8653;BME280;4364;52.426;9.424;2023-02-28T04:56:19;102623.69;;;-3.73;92.65
8653;BME280;4364;52.426;9.424;2023-02-28T04:58:46;102622.16;;;-3.76;92.82
8653;BME280;4364;52.426;9.424;2023-02-28T05:01:20;102634.31;;;-3.73;92.62
8653;BME280;4364;52.426;9.424;2023-02-28T05:03:47;102630.72;;;-3.72;93.12
8653;BME280;4364;52.426;9.424;2023-02-28T05:06:15;102628.44;;;-3.77;92.55
8653;BME280;4364;52.426;9.424;2023-02-28T05:08:41;102628.56;;;-3.78;92.62
8653;BME280;4364;52.426;9.424;2023-02-28T05:11:29;102634.59;;;-3.76;92.53
8653;BME280;4364;52.426;9.424;2023-02-28T05:14:03;102632.75;;;-3.85;92.33
8653;BME280;4364;52.426;9.424;2023-02-28T05:16:30;102623.47;;;-3.91;92.62
8653;BME280;4364;52.426;9.424;2023-02-28T05:18:57;102630.22;;;-3.87;92.41
8653;BME280;4364;52.426;9.424;2023-02-28T05:21:35;102629.53;;;-3.89;92.15
8653;BME280;4364;52.426;9.424;2023-02-28T05:24:04;102615.19;;;-3.98;92.61
8653;BME280;4364;52.426;9.424;2023-02-28T05:26:34;102626.38;;;-4.04;92.84
8653;BME280;4364;52.426;9.424;2023-02-28T05:29:01;102629.44;;;-4.08;92.46
8653;BME280;4364;52.426;9.424;2023-02-28T05:31:28;102638.63;;;-4.13;92.88
8653;BME280;4364;52.426;9.424;2023-02-28T05:33:55;102630.53;;;-4.11;92.72
8653;BME280;4364;52.426;9.424;2023-02-28T05:36:22;102635.28;;;-4.15;92.86
8653;BME280;4364;52.426;9.424;2023-02-28T05:38:50;102633.31;;;-4.13;92.93
8653;BME280;4364;52.426;9.424;2023-02-28T05:41:17;102644.88;;;-4.23;92.38
8653;BME280;4364;52.426;9.424;2023-02-28T05:43:45;102640.66;;;-4.26;92.62
8653;BME280;4364;52.426;9.424;2023-02-28T05:46:12;102635.34;;;-4.26;92.95
8653;BME280;4364;52.426;9.424;2023-02-28T05:48:42;102641.41;;;-4.24;93.06
8653;BME280;4364;52.426;9.424;2023-02-28T05:51:09;102642.63;;;-4.28;92.69
8653;BME280;4364;52.426;9.424;2023-02-28T05:53:35;102644.31;;;-4.27;92.70
8653;BME280;4364;52.426;9.424;2023-02-28T05:56:03;102649.50;;;-4.25;92.55
8653;BME280;4364;52.426;9.424;2023-02-28T05:58:29;102652.28;;;-4.27;92.33
8653;BME280;4364;52.426;9.424;2023-02-28T06:00:58;102653.25;;;-4.28;92.59
8653;BME280;4364;52.426;9.424;2023-02-28T06:03:25;102645.72;;;-4.23;92.45
8653;BME280;4364;52.426;9.424;2023-02-28T06:05:51;102640.66;;;-4.26;91.94
8653;BME280;4364;52.426;9.424;2023-02-28T06:08:18;102646.38;;;-4.31;91.76
8653;BME280;4364;52.426;9.424;2023-02-28T06:10:44;102639.97;;;-4.28;91.97
8653;BME280;4364;52.426;9.424;2023-02-28T06:13:11;102641.78;;;-4.29;91.84
8653;BME280;4364;52.426;9.424;2023-02-28T06:15:39;102646.25;;;-4.29;92.05
8653;BME280;4364;52.426;9.424;2023-02-28T06:18:05;102642.63;;;-4.28;91.92
8653;BME280;4364;52.426;9.424;2023-02-28T06:20:32;102648.19;;;-4.31;91.79
8653;BME280;4364;52.426;9.424;2023-02-28T06:22:59;102651.50;;;-4.39;91.93
8653;BME280;4364;52.426;9.424;2023-02-28T06:25:27;102653.91;;;-4.36;92.00
8653;BME280;4364;52.426;9.424;2023-02-28T06:27:54;102649.69;;;-4.38;92.04
8653;BME280;4364;52.426;9.424;2023-02-28T06:30:21;102655.25;;;-4.41;92.27
8653;BME280;4364;52.426;9.424;2023-02-28T06:32:51;102653.59;;;-4.42;91.95
8653;BME280;4364;52.426;9.424;2023-02-28T06:35:18;102665.03;;;-4.42;92.41
8653;BME280;4364;52.426;9.424;2023-02-28T06:37:44;102663.75;;;-4.48;92.09
8653;BME280;4364;52.426;9.424;2023-02-28T06:40:11;102669.78;;;-4.45;92.52
8653;BME280;4364;52.426;9.424;2023-02-28T06:42:39;102674.22;;;-4.46;92.62
8653;BME280;4364;52.426;9.424;2023-02-28T06:45:06;102685.91;;;-4.37;92.92
8653;BME280;4364;52.426;9.424;2023-02-28T06:47:37;102689.91;;;-4.22;93.04
8653;BME280;4364;52.426;9.424;2023-02-28T06:50:05;102693.72;;;-4.15;92.81
8653;BME280;4364;52.426;9.424;2023-02-28T06:52:32;102697.28;;;-4.04;92.96
8653;BME280;4364;52.426;9.424;2023-02-28T06:54:59;102699.69;;;-4.01;92.92
8653;BME280;4364;52.426;9.424;2023-02-28T06:57:30;102697.34;;;-3.95;93.31
8653;BME280;4364;52.426;9.424;2023-02-28T07:00:02;102698.34;;;-3.96;93.58
8653;BME280;4364;52.426;9.424;2023-02-28T07:02:29;102703.84;;;-3.87;93.70
8653;BME280;4364;52.426;9.424;2023-02-28T07:04:55;102704.41;;;-3.84;93.67
8653;BME280;4364;52.426;9.424;2023-02-28T07:07:22;102714.59;;;-3.89;93.42
8653;BME280;4364;52.426;9.424;2023-02-28T07:09:48;102708.16;;;-3.86;94.23
8653;BME280;4364;52.426;9.424;2023-02-28T07:12:15;102699.22;;;-3.85;94.22
8653;BME280;4364;52.426;9.424;2023-02-28T07:14:42;102714.78;;;-3.81;94.45
8653;BME280;4364;52.426;9.424;2023-02-28T07:17:09;102711.00;;;-3.78;94.28
8653;BME280;4364;52.426;9.424;2023-02-28T07:19:38;102713.66;;;-3.78;93.99
8653;BME280;4364;52.426;9.424;2023-02-28T07:22:06;102713.53;;;-3.77;94.14
8653;BME280;4364;52.426;9.424;2023-02-28T07:24:33;102710.34;;;-3.70;94.55
8653;BME280;4364;52.426;9.424;2023-02-28T07:27:00;102711.31;;;-3.72;94.42
8653;BME280;4364;52.426;9.424;2023-02-28T07:29:27;102703.91;;;-3.68;94.61
8653;BME280;4364;52.426;9.424;2023-02-28T07:31:54;102708.69;;;-3.62;94.61
8653;BME280;4364;52.426;9.424;2023-02-28T07:34:21;102705.91;;;-3.60;94.94
8653;BME280;4364;52.426;9.424;2023-02-28T07:36:48;102702.97;;;-3.57;94.59
8653;BME280;4364;52.426;9.424;2023-02-28T07:39:14;102709.97;;;-3.56;95.08
8653;BME280;4364;52.426;9.424;2023-02-28T07:41:41;102708.75;;;-3.52;95.25
8653;BME280;4364;52.426;9.424;2023-02-28T07:44:10;102704.81;;;-3.48;95.40
8653;BME280;4364;52.426;9.424;2023-02-28T07:46:37;102704.56;;;-3.45;95.24
8653;BME280;4364;52.426;9.424;2023-02-28T07:49:05;102700.38;;;-3.38;95.48
8653;BME280;4364;52.426;9.424;2023-02-28T07:51:31;102699.00;;;-3.32;95.62
8653;BME280;4364;52.426;9.424;2023-02-28T07:53:58;102709.81;;;-3.24;95.53
8653;BME280;4364;52.426;9.424;2023-02-28T07:56:25;102706.88;;;-3.21;95.75
8653;BME280;4364;52.426;9.424;2023-02-28T07:58:51;102702.69;;;-3.13;95.86
8653;BME280;4364;52.426;9.424;2023-02-28T08:01:17;102701.00;;;-3.05;95.90
8653;BME280;4364;52.426;9.424;2023-02-28T08:03:45;102700.91;;;-2.93;96.07
8653;BME280;4364;52.426;9.424;2023-02-28T08:06:20;102703.28;;;-2.81;96.65
8653;BME280;4364;52.426;9.424;2023-02-28T08:08:47;102702.88;;;-2.66;97.24
8653;BME280;4364;52.426;9.424;2023-02-28T08:11:13;102704.56;;;-2.55;96.89
8653;BME280;4364;52.426;9.424;2023-02-28T08:13:40;102690.78;;;-2.41;97.26
8653;BME280;4364;52.426;9.424;2023-02-28T08:16:08;102696.38;;;-2.25;96.99
8653;BME280;4364;52.426;9.424;2023-02-28T08:18:35;102693.69;;;-2.15;96.82
8653;BME280;4364;52.426;9.424;2023-02-28T08:21:09;102703.59;;;-1.97;95.87
8653;BME280;4364;52.426;9.424;2023-02-28T08:23:36;102697.16;;;-1.95;95.13
8653;BME280;4364;52.426;9.424;2023-02-28T08:26:03;102700.91;;;-1.88;94.82
8653;BME280;4364;52.426;9.424;2023-02-28T08:28:30;102700.03;;;-1.41;91.16
8653;BME280;4364;52.426;9.424;2023-02-28T08:30:57;102700.69;;;-1.11;87.41
8653;BME280;4364;52.426;9.424;2023-02-28T08:33:25;102712.69;;;-1.15;85.68
8653;BME280;4364;52.426;9.424;2023-02-28T08:35:55;102718.25;;;-1.08;86.21
8653;BME280;4364;52.426;9.424;2023-02-28T08:38:23;102713.66;;;-1.16;86.39
8653;BME280;4364;52.426;9.424;2023-02-28T08:40:57;102715.84;;;-1.02;85.06
8653;BME280;4364;52.426;9.424;2023-02-28T08:43:23;102714.75;;;-0.91;83.03
8653;BME280;4364;52.426;9.424;2023-02-28T08:45:54;102722.66;;;-0.71;81.91
8653;BME280;4364;52.426;9.424;2023-02-28T08:48:24;102715.84;;;-0.48;79.20
8653;BME280;4364;52.426;9.424;2023-02-28T08:50:59;102720.22;;;-0.47;79.14
8653;BME280;4364;52.426;9.424;2023-02-28T08:53:32;102721.88;;;-0.46;78.72
8653;BME280;4364;52.426;9.424;2023-02-28T08:56:01;102721.72;;;-0.44;78.97
8653;BME280;4364;52.426;9.424;2023-02-28T08:58:29;102715.81;;;-0.30;78.71
8653;BME280;4364;52.426;9.424;2023-02-28T09:00:56;102715.47;;;-0.35;78.92
8653;BME280;4364;52.426;9.424;2023-02-28T09:03:23;102715.53;;;-0.27;77.98
8653;BME280;4364;52.426;9.424;2023-02-28T09:05:58;102729.88;;;-0.28;78.81
8653;BME280;4364;52.426;9.424;2023-02-28T09:08:29;102724.34;;;-0.08;79.17
8653;BME280;4364;52.426;9.424;2023-02-28T09:10:57;102726.22;;;-0.01;79.44
8653;BME280;4364;52.426;9.424;2023-02-28T09:13:27;102730.63;;;0.09;78.29
8653;BME280;4364;52.426;9.424;2023-02-28T09:15:55;102732.16;;;0.11;78.68
8653;BME280;4364;52.426;9.424;2023-02-28T09:18:23;102732.16;;;0.11;78.85
8653;BME280;4364;52.426;9.424;2023-02-28T09:20:50;102733.88;;;0.21;78.76
8653;BME280;4364;52.426;9.424;2023-02-28T09:23:16;102736.16;;;0.42;77.93
8653;BME280;4364;52.426;9.424;2023-02-28T09:25:48;102727.22;;;0.59;77.33
8653;BME280;4364;52.426;9.424;2023-02-28T09:28:15;102730.78;;;0.68;76.98
8653;BME280;4364;52.426;9.424;2023-02-28T09:30:47;102725.94;;;0.71;77.15
8653;BME280;4364;52.426;9.424;2023-02-28T09:33:15;102726.59;;;0.65;77.39
8653;BME280;4364;52.426;9.424;2023-02-28T09:35:42;102733.34;;;0.86;76.46
8653;BME280;4364;52.426;9.424;2023-02-28T09:38:10;102739.88;;;0.91;74.88
8653;BME280;4364;52.426;9.424;2023-02-28T09:40:40;102728.69;;;0.96;75.43
8653;BME280;4364;52.426;9.424;2023-02-28T09:43:14;102732.91;;;0.99;75.28
8653;BME280;4364;52.426;9.424;2023-02-28T09:45:47;102732.34;;;0.95;74.44
8653;BME280;4364;52.426;9.424;2023-02-28T09:48:19;102730.06;;;1.17;74.67
8653;BME280;4364;52.426;9.424;2023-02-28T09:50:50;102722.72;;;1.10;74.79
8653;BME280;4364;52.426;9.424;2023-02-28T09:53:35;102725.59;;;1.50;73.32
8653;BME280;4364;52.426;9.424;2023-02-28T09:56:11;102726.75;;;1.39;71.09
8653;BME280;4364;52.426;9.424;2023-02-28T10:01:22;102726.63;;;1.57;70.89
8653;BME280;4364;52.426;9.424;2023-02-28T10:03:56;102725.44;;;1.68;69.99
8653;BME280;4364;52.426;9.424;2023-02-28T10:06:30;102719.56;;;1.89;69.15
8653;BME280;4364;52.426;9.424;2023-02-28T10:09:18;102725.41;;;2.09;68.24
8653;BME280;4364;52.426;9.424;2023-02-28T10:11:50;102727.22;;;2.09;68.20
8653;BME280;4364;52.426;9.424;2023-02-28T10:14:26;102727.25;;;2.00;67.87
8653;BME280;4364;52.426;9.424;2023-02-28T10:17:17;102726.84;;;2.28;67.62
8653;BME280;4364;52.426;9.424;2023-02-28T10:22:19;102722.34;;;2.20;66.22
8653;BME280;4364;52.426;9.424;2023-02-28T10:24:55;102720.00;;;2.26;66.72
8653;BME280;4364;52.426;9.424;2023-02-28T10:27:25;102725.28;;;2.50;65.50
8653;BME280;4364;52.426;9.424;2023-02-28T10:29:54;102719.34;;;2.63;64.74
8653;BME280;4364;52.426;9.424;2023-02-28T10:32:31;102716.06;;;2.84;63.80
8653;BME280;4364;52.426;9.424;2023-02-28T10:37:42;102717.06;;;2.83;62.70
8653;BME280;4364;52.426;9.424;2023-02-28T10:40:33;102712.28;;;3.02;60.87
8653;BME280;4364;52.426;9.424;2023-02-28T10:43:04;102706.03;;;3.09;59.05
8653;BME280;4364;52.426;9.424;2023-02-28T10:45:33;102708.41;;;3.04;58.16
8653;BME280;4364;52.426;9.424;2023-02-28T10:59:45;102716.56;;;3.19;55.25
8653;BME280;4364;52.426;9.424;2023-02-28T11:01:45;102714.69;;;2.88;54.89
8653;BME280;4364;52.426;9.424;2023-02-28T11:07:00;102722.84;;;3.03;54.14
8653;BME280;4364;52.426;9.424;2023-02-28T11:09:36;102712.31;;;2.93;54.01
8653;BME280;4364;52.426;9.424;2023-02-28T11:12:20;102714.13;;;3.01;54.45
8653;BME280;4364;52.426;9.424;2023-02-28T11:14:50;102699.69;;;3.25;54.69
8653;BME280;4364;52.426;9.424;2023-02-28T11:17:43;102702.25;;;3.19;54.68
8653;BME280;4364;52.426;9.424;2023-02-28T11:20:20;102697.28;;;3.30;52.67
8653;BME280;4364;52.426;9.424;2023-02-28T11:22:50;102697.78;;;3.11;53.50
8653;BME280;4364;52.426;9.424;2023-02-28T11:25:30;102701.00;;;3.29;53.68
8653;BME280;4364;52.426;9.424;2023-02-28T11:28:00;102696.75;;;3.58;52.09
8653;BME280;4364;52.426;9.424;2023-02-28T11:30:33;102687.38;;;3.69;50.51
8653;BME280;4364;52.426;9.424;2023-02-28T11:33:13;102697.47;;;3.90;49.46
8653;BME280;4364;52.426;9.424;2023-02-28T11:35:45;102693.38;;;3.94;48.76
8653;BME280;4364;52.426;9.424;2023-02-28T11:38:14;102693.09;;;3.89;49.92
8653;BME280;4364;52.426;9.424;2023-02-28T11:43:46;102671.66;;;3.96;49.94
8653;BME280;4364;52.426;9.424;2023-02-28T11:46:58;102676.66;;;3.99;48.89
8653;BME280;4364;52.426;9.424;2023-02-28T12:03:18;102669.91;;;4.03;47.14
8653;BME280;4364;52.426;9.424;2023-02-28T12:06:09;102665.00;;;4.06;46.63
8653;BME280;4364;52.426;9.424;2023-02-28T12:08:49;102671.66;;;4.11;44.14
8653;BME280;4364;52.426;9.424;2023-02-28T12:11:34;102666.84;;;4.06;44.96
8653;BME280;4364;52.426;9.424;2023-02-28T12:19:54;102663.41;;;4.27;47.12
8653;BME280;4364;52.426;9.424;2023-02-28T12:22:39;102656.91;;;4.21;47.39
8653;BME280;4364;52.426;9.424;2023-02-28T12:28:12;102639.53;;;4.39;47.60
8653;BME280;4364;52.426;9.424;2023-02-28T12:30:56;102651.22;;;4.46;47.14
8653;BME280;4364;52.426;9.424;2023-02-28T12:33:32;102646.50;;;4.48;45.63
8653;BME280;4364;52.426;9.424;2023-02-28T12:36:05;102643.63;;;4.35;46.28
8653;BME280;4364;52.426;9.424;2023-02-28T12:38:41;102633.56;;;4.43;47.01
8653;BME280;4364;52.426;9.424;2023-02-28T12:41:15;102627.78;;;4.61;46.37
8653;BME280;4364;52.426;9.424;2023-02-28T12:43:49;102634.53;;;4.72;46.42
8653;BME280;4364;52.426;9.424;2023-02-28T12:46:36;102623.47;;;4.67;46.68
8653;BME280;4364;52.426;9.424;2023-02-28T12:49:28;102629.50;;;4.69;47.36
8653;BME280;4364;52.426;9.424;2023-02-28T12:51:59;102617.22;;;4.45;47.21
8653;BME280;4364;52.426;9.424;2023-02-28T12:54:36;102614.56;;;4.30;47.59
8653;BME280;4364;52.426;9.424;2023-02-28T12:57:15;102617.78;;;4.40;47.49
8653;BME280;4364;52.426;9.424;2023-02-28T12:59:51;102611.47;;;4.48;48.30
8653;BME280;4364;52.426;9.424;2023-02-28T13:08:04;102606.09;;;4.70;47.50
8653;BME280;4364;52.426;9.424;2023-02-28T13:10:47;102601.94;;;4.89;46.87
8653;BME280;4364;52.426;9.424;2023-02-28T13:13:18;102593.78;;;5.04;47.02
8653;BME280;4364;52.426;9.424;2023-02-28T13:16:04;102600.00;;;5.04;47.63
8653;BME280;4364;52.426;9.424;2023-02-28T13:20:58;102589.41;;;5.03;46.19
8653;BME280;4364;52.426;9.424;2023-02-28T13:26:23;102592.16;;;5.09;46.96
8653;BME280;4364;52.426;9.424;2023-02-28T13:31:21;102589.34;;;4.96;47.19
8653;BME280;4364;52.426;9.424;2023-02-28T13:38:46;102582.44;;;5.08;46.94
8653;BME280;4364;52.426;9.424;2023-02-28T13:43:59;102578.28;;;5.34;46.98
8653;BME280;4364;52.426;9.424;2023-02-28T13:46:27;102582.53;;;5.22;46.85
8653;BME280;4364;52.426;9.424;2023-02-28T13:48:53;102573.22;;;5.24;47.02
8653;BME280;4364;52.426;9.424;2023-02-28T13:51:39;102574.19;;;5.16;46.89
8653;BME280;4364;52.426;9.424;2023-02-28T13:54:21;102562.16;;;5.19;46.79
8653;BME280;4364;52.426;9.424;2023-02-28T14:00:06;102565.44;;;5.14;48.29
8653;BME280;4364;52.426;9.424;2023-02-28T14:05:30;102558.66;;;5.47;47.49
8653;BME280;4364;52.426;9.424;2023-02-28T14:08:04;102553.16;;;5.33;48.14
8653;BME280;4364;52.426;9.424;2023-02-28T14:10:41;102558.13;;;5.30;47.73
8653;BME280;4364;52.426;9.424;2023-02-28T14:13:36;102562.66;;;5.29;47.93
8653;BME280;4364;52.426;9.424;2023-02-28T14:16:03;102547.66;;;5.20;47.46
8653;BME280;4364;52.426;9.424;2023-02-28T14:18:34;102558.72;;;5.04;46.57
8653;BME280;4364;52.426;9.424;2023-02-28T14:27:12;102565.31;;;5.23;46.79
8653;BME280;4364;52.426;9.424;2023-02-28T14:29:56;102556.44;;;5.29;47.01
8653;BME280;4364;52.426;9.424;2023-02-28T14:35:46;102559.22;;;5.14;47.23
8653;BME280;4364;52.426;9.424;2023-02-28T14:38:27;102558.59;;;5.12;47.20
8653;BME280;4364;52.426;9.424;2023-02-28T14:40:58;102561.47;;;5.10;46.63
8653;BME280;4364;52.426;9.424;2023-02-28T14:43:28;102557.34;;;5.14;47.19
8653;BME280;4364;52.426;9.424;2023-02-28T14:46:05;102559.03;;;5.15;47.97
8653;BME280;4364;52.426;9.424;2023-02-28T14:48:32;102557.97;;;5.10;47.50
8653;BME280;4364;52.426;9.424;2023-02-28T14:51:00;102552.44;;;5.18;47.46
8653;BME280;4364;52.426;9.424;2023-02-28T14:53:29;102558.97;;;5.09;47.51
8653;BME280;4364;52.426;9.424;2023-02-28T14:55:56;102551.47;;;5.04;48.16
8653;BME280;4364;52.426;9.424;2023-02-28T14:58:31;102557.34;;;5.14;47.90
8653;BME280;4364;52.426;9.424;2023-02-28T15:01:00;102556.16;;;5.17;47.79
8653;BME280;4364;52.426;9.424;2023-02-28T15:05:56;102548.53;;;4.99;48.05
8653;BME280;4364;52.426;9.424;2023-02-28T15:08:24;102551.84;;;5.01;48.84
8653;BME280;4364;52.426;9.424;2023-02-28T15:11:06;102552.06;;;4.99;48.81
8653;BME280;4364;52.426;9.424;2023-02-28T15:13:41;102550.84;;;5.02;48.27
8653;BME280;4364;52.426;9.424;2023-02-28T15:16:17;102552.00;;;4.93;48.78
8653;BME280;4364;52.426;9.424;2023-02-28T15:19:00;102548.09;;;4.95;48.43
8653;BME280;4364;52.426;9.424;2023-02-28T15:21:34;102553.84;;;4.92;48.23
8653;BME280;4364;52.426;9.424;2023-02-28T15:24:07;102556.16;;;4.95;48.10
8653;BME280;4364;52.426;9.424;2023-02-28T15:26:42;102545.13;;;4.90;48.09
8653;BME280;4364;52.426;9.424;2023-02-28T15:29:19;102553.09;;;4.77;48.19